createdAt,value
2023-05-20T00:02:03.485Z,20.02
2023-05-20T00:08:11.506Z,20.12
2023-05-20T00:14:17.708Z,19.97
2023-05-20T00:20:19.873Z,19.83
2023-05-20T00:26:23.280Z,19.77
2023-05-20T00:32:31.201Z,19.67
2023-05-20T00:38:34.515Z,19.58
2023-05-20T00:44:42.378Z,19.41
2023-05-20T00:50:46.438Z,19.39
2023-05-20T00:56:49.954Z,19.33
2023-05-20T01:03:02.617Z,19.35
2023-05-20T01:09:11.758Z,19.26
2023-05-20T01:15:26.630Z,19.19
2023-05-20T01:21:32.587Z,19.05
2023-05-20T01:27:37.963Z,19.04
2023-05-20T01:33:46.792Z,19.03
2023-05-20T01:39:57.285Z,19.06
2023-05-20T01:46:02.667Z,19.09
2023-05-20T01:52:06.452Z,18.96
2023-05-20T01:58:11.009Z,18.79
2023-05-20T02:04:15.462Z,18.78
2023-05-20T02:10:22.028Z,18.79
2023-05-20T02:16:25.315Z,18.63
2023-05-20T02:22:31.328Z,18.57
2023-05-20T02:28:38.009Z,18.55
2023-05-20T02:34:43.412Z,18.57
2023-05-20T02:40:51.847Z,18.47
2023-05-20T02:46:54.200Z,18.58
2023-05-20T02:53:01.194Z,18.63
2023-05-20T02:59:05.807Z,18.62
2023-05-20T03:05:15.348Z,18.69
2023-05-20T03:11:22.299Z,18.63
2023-05-20T03:17:28.502Z,18.68
2023-05-20T03:23:38.043Z,18.72
2023-05-20T03:29:44.606Z,18.84
2023-05-20T03:35:47.176Z,18.90
2023-05-20T03:41:53.576Z,18.88
2023-05-20T03:48:02.271Z,18.78
2023-05-20T03:54:12.710Z,18.92
2023-05-20T04:00:22.250Z,18.97
2023-05-20T04:06:29.373Z,19.13
2023-05-20T04:12:39.355Z,19.28
2023-05-20T04:25:00.618Z,19.43
